createdAt,value
2018-02-06T00:02:24.881Z,105.13
2018-02-06T00:04:52.433Z,99.57
2018-02-06T00:07:20.365Z,102.30
2018-02-06T00:09:47.957Z,97.30
2018-02-06T00:12:15.517Z,98.63
2018-02-06T00:14:43.107Z,98.53
2018-02-06T00:17:10.646Z,94.77
2018-02-06T00:19:38.218Z,94.10
2018-02-06T00:22:05.872Z,91.13
2018-02-06T00:24:33.440Z,94.43
2018-02-06T00:27:01.033Z,89.80
2018-02-06T00:29:28.570Z,87.00
2018-02-06T00:31:56.671Z,88.90
2018-02-06T00:34:24.787Z,91.93
2018-02-06T00:36:52.326Z,90.93
2018-02-06T00:39:19.924Z,89.23
2018-02-06T00:42:04.922Z,87.57
2018-02-06T00:44:33.000Z,93.57
2018-02-06T00:47:00.560Z,91.33
2018-02-06T00:49:28.105Z,100.47
2018-02-06T00:51:55.694Z,93.33
2018-02-06T00:54:24.484Z,93.47
2018-02-06T00:56:52.076Z,90.13
2018-02-06T00:59:20.005Z,92.30
2018-02-06T01:01:47.555Z,90.70
2018-02-06T01:04:15.155Z,85.50
2018-02-06T01:06:42.700Z,89.50
2018-02-06T01:09:10.273Z,93.77
2018-02-06T01:11:37.866Z,88.00
2018-02-06T01:14:05.452Z,89.50
2018-02-06T01:16:33.004Z,95.20
2018-02-06T01:19:00.587Z,92.10
2018-02-06T01:21:28.674Z,89.20
2018-02-06T01:23:56.293Z,98.80
2018-02-06T01:26:24.114Z,91.57
2018-02-06T01:28:51.651Z,98.47
2018-02-06T01:31:19.590Z,100.10
2018-02-06T01:33:47.134Z,97.50
2018-02-06T01:36:14.744Z,99.53
2018-02-06T01:38:42.307Z,107.80
2018-02-06T01:41:09.872Z,107.50
2018-02-06T01:43:37.473Z,107.23
2018-02-06T01:46:05.199Z,96.83
2018-02-06T01:48:33.726Z,110.77
2018-02-06T01:51:01.288Z,118.20
2018-02-06T01:53:28.887Z,113.10
2018-02-06T01:55:56.443Z,110.10
2018-02-06T01:58:24.044Z,120.27
2018-02-06T02:00:51.635Z,121.83
2018-02-06T02:03:19.192Z,128.57
2018-02-06T02:05:46.819Z,127.80
2018-02-06T02:08:14.761Z,137.07
2018-02-06T02:10:42.832Z,131.70
2018-02-06T02:13:10.435Z,124.50
2018-02-06T02:15:38.014Z,122.40
2018-02-06T02:18:05.562Z,120.37
2018-02-06T02:20:33.263Z,109.07
2018-02-06T02:23:00.858Z,101.57
2018-02-06T02:25:28.414Z,109.83
2018-02-06T02:27:56.019Z,117.03
2018-02-06T02:30:23.602Z,107.30
2018-02-06T02:32:51.154Z,107.47
2018-02-06T02:35:18.772Z,111.10
2018-02-06T02:37:46.323Z,109.43
2018-02-06T02:40:14.298Z,99.03
2018-02-06T04:40:49.227Z,80.93
2018-02-06T04:43:16.805Z,74.93
2018-02-06T04:45:44.396Z,81.20
2018-02-06T04:48:11.986Z,72.53
2018-02-06T04:50:39.527Z,74.23
2018-02-06T04:53:07.115Z,70.73
2018-02-06T04:55:34.654Z,76.03
2018-02-06T04:58:02.235Z,82.63
2018-02-06T05:00:29.774Z,80.87
2018-02-06T05:02:57.997Z,79.57
2018-02-06T05:05:25.543Z,88.20
2018-02-06T05:07:53.131Z,88.03
2018-02-06T05:10:20.722Z,88.73
2018-02-06T05:12:48.275Z,114.63
2018-02-06T05:15:16.471Z,172.33
2018-02-06T05:17:44.032Z,211.03
2018-02-06T05:20:11.634Z,154.20
2018-02-06T05:22:39.186Z,176.27
2018-02-06T05:25:06.744Z,169.67
2018-02-06T05:27:34.325Z,172.23
2018-02-06T05:30:01.919Z,170.53
2018-02-06T05:32:29.524Z,170.67
2018-02-06T05:34:57.068Z,192.00
2018-02-06T05:37:24.663Z,178.70
2018-02-06T05:39:52.267Z,226.97
2018-02-06T05:42:19.869Z,233.70
2018-02-06T05:44:47.505Z,206.63
2018-02-06T05:47:15.274Z,214.90
2018-02-06T05:49:42.827Z,205.50
2018-02-06T05:52:10.497Z,203.68
2018-02-06T05:54:38.095Z,194.27
2018-02-06T05:57:06.093Z,199.25
2018-02-06T05:59:33.685Z,183.27
2018-02-06T06:02:01.836Z,171.63
2018-02-06T06:04:29.459Z,166.73
2018-02-06T06:06:57.020Z,158.70
2018-02-06T06:09:24.637Z,158.00
2018-02-06T06:11:52.192Z,151.10
2018-02-06T06:14:19.800Z,132.47
2018-02-06T06:16:47.400Z,152.53
2018-02-06T06:19:15.447Z,138.33
2018-02-06T06:21:43.093Z,114.88
2018-02-06T06:24:11.471Z,110.57
2018-02-06T06:26:39.196Z,110.33
2018-02-06T06:29:07.176Z,128.87
2018-02-06T06:31:34.776Z,206.77
2018-02-06T06:34:03.102Z,247.83
2018-02-06T06:36:30.660Z,180.80
2018-02-06T06:38:58.253Z,199.60
2018-02-06T06:41:26.089Z,242.23
2018-02-06T06:43:53.978Z,195.57
2018-02-06T06:46:21.688Z,165.27
2018-02-06T06:48:49.283Z,178.33
2018-02-06T06:51:17.130Z,163.40
2018-02-06T06:53:44.695Z,158.95
2018-02-06T06:56:13.066Z,168.57
2018-02-06T06:58:40.670Z,153.60
2018-02-06T07:01:08.731Z,176.23
2018-02-06T07:03:36.304Z,171.00
2018-02-06T07:06:05.313Z,178.67
2018-02-06T07:08:33.338Z,182.32
2018-02-06T07:11:01.901Z,175.30
2018-02-06T07:13:29.674Z,168.30
2018-02-06T07:15:57.282Z,155.00
2018-02-06T07:18:25.309Z,427.70
2018-02-06T07:20:52.866Z,619.00
2018-02-06T07:23:22.052Z,288.98
2018-02-06T07:25:49.660Z,203.55
2018-02-06T07:28:17.560Z,196.50
2018-02-06T07:30:45.496Z,186.45
2018-02-06T07:33:13.144Z,196.30
2018-02-06T07:35:41.279Z,190.80
2018-02-06T07:38:08.832Z,183.80
2018-02-06T07:40:36.780Z,177.47
2018-02-06T07:43:05.079Z,159.77
2018-02-06T07:45:33.796Z,145.75
2018-02-06T07:48:02.298Z,133.25
2018-02-06T07:50:30.193Z,132.80
2018-02-06T07:52:59.817Z,135.15
2018-02-06T07:55:27.441Z,137.07
2018-02-06T07:57:55.511Z,123.10
2018-02-06T08:00:24.067Z,129.90
2018-02-06T08:02:51.673Z,114.77
2018-02-06T08:05:19.228Z,125.13
2018-02-06T08:07:46.788Z,121.83
2018-02-06T08:10:14.477Z,122.43
2018-02-06T08:12:42.037Z,119.83
2018-02-06T08:15:09.676Z,119.37
2018-02-06T08:17:37.236Z,114.73
2018-02-06T08:20:04.792Z,110.50
2018-02-06T08:22:32.396Z,115.40
2018-02-06T08:25:00.138Z,115.07
2018-02-06T08:27:27.710Z,124.28
2018-02-06T08:29:55.268Z,126.70
2018-02-06T08:32:22.869Z,143.57
2018-02-06T08:34:50.431Z,145.17
2018-02-06T08:37:18.060Z,142.57
2018-02-06T08:39:45.611Z,148.03
2018-02-06T08:42:13.218Z,136.97
2018-02-06T08:44:40.792Z,154.73
2018-02-06T08:47:08.408Z,121.43
2018-02-06T08:49:35.991Z,121.62
2018-02-06T08:52:03.602Z,137.43
2018-02-06T08:54:31.194Z,126.30
2018-02-06T08:56:58.808Z,118.53
2018-02-06T08:59:26.379Z,125.80
2018-02-06T09:01:53.967Z,127.93
2018-02-06T09:05:22.603Z,120.33
2018-02-06T09:07:50.268Z,124.38
2018-02-06T09:10:17.816Z,117.43
2018-02-06T09:12:46.009Z,116.87
2018-02-06T09:15:13.558Z,127.62
2018-02-06T09:17:41.838Z,125.07
2018-02-06T09:20:09.431Z,119.23
2018-02-06T09:22:37.032Z,118.65
2018-02-06T09:25:04.583Z,122.07
2018-02-06T09:27:33.133Z,110.80
2018-02-06T09:30:01.516Z,106.20
2018-02-06T09:32:29.133Z,107.25
2018-02-06T09:34:56.734Z,110.77
2018-02-06T09:37:24.347Z,120.28
2018-02-06T09:39:51.895Z,106.30
2018-02-06T09:42:19.490Z,107.13
2018-02-06T09:44:47.855Z,105.12
2018-02-06T09:47:15.432Z,97.70
2018-02-06T09:49:42.974Z,111.07
2018-02-06T09:52:10.570Z,104.17
2018-02-06T09:54:38.113Z,104.53
2018-02-06T09:57:05.663Z,106.60
2018-02-06T09:59:34.127Z,110.88
2018-02-06T10:02:02.873Z,114.03
2018-02-06T10:04:30.427Z,119.33
2018-02-06T10:06:58.019Z,115.20
2018-02-06T10:09:25.606Z,105.20
2018-02-06T10:11:53.374Z,118.73
2018-02-06T10:14:20.966Z,107.53
2018-02-06T10:16:48.528Z,112.83
2018-02-06T10:19:16.097Z,99.70
2018-02-06T10:21:43.677Z,94.20
2018-02-06T10:24:12.151Z,103.07
2018-02-06T10:26:39.698Z,96.57
2018-02-06T10:29:07.724Z,108.40
2018-02-06T10:31:36.067Z,88.20
2018-02-06T10:34:03.751Z,93.83
2018-02-06T10:36:32.436Z,89.37
2018-02-06T10:38:59.994Z,99.70
2018-02-06T10:41:28.379Z,112.53
2018-02-06T10:43:56.156Z,105.25
2018-02-06T10:46:23.747Z,105.68
2018-02-06T10:48:51.682Z,105.53
2018-02-06T10:51:19.448Z,106.30
2018-02-06T10:53:46.997Z,108.97
2018-02-06T10:56:14.621Z,118.07
2018-02-06T10:58:42.235Z,103.17
2018-02-06T11:01:09.818Z,100.90
2018-02-06T11:03:37.411Z,105.50
2018-02-06T11:06:04.993Z,106.85
2018-02-06T11:08:32.538Z,100.43
2018-02-06T11:11:00.514Z,105.23
2018-02-06T11:13:28.673Z,106.70
2018-02-06T11:15:56.238Z,109.60
2018-02-06T11:18:23.847Z,105.50
2018-02-06T11:20:51.426Z,117.55
2018-02-06T11:23:19.029Z,115.63
2018-02-06T11:25:46.565Z,119.05
2018-02-06T11:28:14.165Z,122.57
2018-02-06T11:30:42.708Z,118.43
2018-02-06T11:33:10.326Z,127.07
2018-02-06T11:35:38.883Z,117.70
2018-02-06T11:38:06.434Z,113.60
2018-02-06T11:40:34.286Z,114.17
2018-02-06T11:43:01.830Z,121.15
2018-02-06T11:45:29.648Z,116.57
2018-02-06T11:47:57.189Z,118.40
2018-02-06T11:50:24.765Z,131.87
2018-02-06T11:52:52.355Z,116.20
2018-02-06T11:55:19.904Z,118.83
2018-02-06T11:57:47.494Z,118.82
2018-02-06T12:00:15.131Z,105.67
2018-02-06T12:02:42.713Z,118.83
2018-02-06T12:05:10.313Z,110.47
2018-02-06T12:07:38.121Z,158.93
2018-02-06T12:10:06.091Z,116.50
2018-02-06T12:12:33.705Z,118.87
2018-02-06T12:15:01.246Z,106.13
2018-02-06T12:17:29.095Z,110.17
2018-02-06T12:19:56.674Z,116.20
2018-02-06T12:22:26.797Z,113.40
2018-02-06T12:24:55.106Z,107.75
2018-02-06T12:27:22.656Z,109.13
2018-02-06T12:29:50.290Z,105.12
2018-02-06T12:32:17.842Z,159.40
2018-02-06T12:34:46.134Z,146.83
2018-02-06T12:37:13.685Z,108.87
2018-02-06T12:39:41.244Z,102.93
2018-02-06T12:42:09.320Z,98.82
2018-02-06T12:44:37.312Z,104.45
2018-02-06T12:47:05.042Z,110.80
2018-02-06T12:49:32.582Z,94.60
2018-02-06T12:52:00.193Z,97.75
2018-02-06T12:54:28.279Z,98.28
2018-02-06T12:56:55.849Z,99.07
2018-02-06T12:59:23.453Z,108.80
2018-02-06T13:01:51.017Z,97.30
2018-02-06T13:04:22.721Z,102.23
2018-02-06T13:06:50.297Z,94.75
2018-02-06T13:09:17.959Z,100.45
2018-02-06T13:11:45.511Z,99.72
2018-02-06T13:14:13.125Z,100.30
2018-02-06T13:16:40.711Z,96.63
2018-02-06T13:19:08.262Z,101.63
2018-02-06T13:21:35.944Z,111.73
2018-02-06T13:24:03.486Z,95.63
2018-02-06T13:26:31.093Z,95.10
2018-02-06T13:28:58.673Z,97.43
2018-02-06T13:31:26.272Z,97.12
2018-02-06T13:33:54.071Z,94.25
2018-02-06T13:36:22.301Z,93.93
2018-02-06T13:38:49.885Z,92.57
2018-02-06T13:41:17.423Z,83.83
2018-02-06T13:43:45.728Z,89.13
2018-02-06T13:46:13.302Z,83.93
2018-02-06T13:48:41.033Z,84.00
2018-02-06T13:51:08.622Z,88.72
2018-02-06T13:53:36.172Z,89.67
2018-02-06T13:56:03.808Z,83.33
2018-02-06T13:58:31.374Z,86.05
2018-02-06T14:00:58.914Z,87.17
2018-02-06T14:03:26.502Z,83.87
2018-02-06T14:05:54.916Z,92.37
2018-02-06T14:08:22.530Z,93.87
2018-02-06T14:10:51.181Z,90.38
2018-02-06T14:13:19.816Z,92.57
2018-02-06T14:15:47.922Z,92.40
2018-02-06T14:18:15.715Z,91.30
2018-02-06T14:20:45.154Z,86.28
2018-02-06T14:23:13.623Z,85.30
2018-02-06T14:25:41.464Z,99.93
2018-02-06T14:28:09.012Z,91.50
2018-02-06T14:30:36.606Z,95.53
2018-02-06T14:33:04.137Z,96.77
2018-02-06T14:35:31.710Z,104.30
2018-02-06T14:37:59.433Z,101.87
2018-02-06T14:40:26.979Z,96.72
2018-02-06T14:42:54.894Z,94.63
2018-02-06T14:45:23.434Z,90.20
2018-02-06T14:47:52.200Z,90.53
2018-02-06T14:50:19.773Z,87.97
2018-02-06T14:52:48.132Z,89.80
2018-02-06T14:55:15.788Z,85.47
2018-02-06T14:57:43.339Z,79.63
2018-02-06T15:00:10.893Z,91.27
2018-02-06T15:02:38.498Z,82.90
2018-02-06T15:05:06.052Z,79.50
2018-02-06T15:07:33.643Z,82.63
2018-02-06T15:10:01.234Z,78.57
2018-02-06T15:12:28.787Z,75.37
2018-02-06T15:14:57.042Z,79.07
2018-02-06T15:17:25.065Z,80.60
2018-02-06T15:19:53.004Z,77.50
2018-02-06T15:22:20.900Z,80.30
2018-02-06T15:24:48.474Z,78.30
2018-02-06T15:27:17.414Z,79.87
2018-02-06T15:29:45.005Z,75.83
2018-02-06T15:32:12.806Z,83.27
2018-02-06T15:34:41.347Z,81.93
2018-02-06T15:37:08.947Z,81.10
2018-02-06T15:39:37.617Z,70.97
2018-02-06T15:42:05.186Z,85.83
2018-02-06T15:44:33.048Z,86.00
2018-02-06T15:47:00.599Z,79.30
2018-02-06T15:49:28.282Z,87.80
2018-02-06T15:51:55.841Z,79.63
2018-02-06T15:54:23.805Z,82.70
2018-02-06T15:56:51.349Z,81.30
2018-02-06T15:59:18.979Z,76.57
2018-02-06T16:01:47.192Z,79.97
2018-02-06T16:04:14.802Z,81.43
2018-02-06T16:06:43.346Z,87.37
2018-02-06T16:09:10.950Z,82.27
2018-02-06T16:11:38.961Z,84.63
2018-02-06T16:14:08.445Z,72.50
2018-02-06T16:16:37.252Z,81.20
2018-02-06T16:19:05.361Z,103.20
2018-02-06T16:21:33.214Z,135.27
2018-02-06T16:24:01.923Z,115.00
2018-02-06T16:26:30.245Z,124.97
2018-02-06T16:28:57.850Z,123.43
2018-02-06T16:31:25.998Z,132.50
2018-02-06T16:33:53.909Z,131.30
2018-02-06T16:36:22.622Z,122.67
2018-02-06T16:38:50.582Z,113.27
2018-02-06T16:41:19.055Z,111.23
2018-02-06T16:43:47.041Z,112.87
2018-02-06T16:46:15.447Z,99.70
2018-02-06T16:48:43.489Z,103.60
2018-02-06T16:51:11.627Z,100.93
2018-02-06T16:53:39.722Z,93.43
2018-02-06T16:56:07.859Z,101.00
2018-02-06T16:58:37.371Z,95.40
2018-02-06T17:01:05.733Z,104.53
2018-02-06T17:03:33.964Z,104.07
2018-02-06T17:06:02.601Z,104.47
2018-02-06T17:08:30.772Z,114.57
2018-02-06T17:10:59.563Z,106.90
2018-02-06T17:13:28.458Z,117.00
2018-02-06T17:15:56.833Z,110.23
2018-02-06T17:18:25.477Z,114.90
2018-02-06T17:20:53.474Z,114.27
2018-02-06T17:23:21.910Z,135.20
2018-02-06T17:25:51.295Z,162.13
2018-02-06T17:28:20.074Z,159.80
2018-02-06T17:30:48.562Z,161.70
2018-02-06T17:33:17.023Z,176.27
2018-02-06T17:35:44.998Z,171.20
2018-02-06T17:38:13.799Z,196.90
2018-02-06T17:40:42.160Z,220.60
2018-02-06T17:43:10.865Z,227.83
2018-02-06T17:45:39.244Z,204.47
2018-02-06T17:48:07.717Z,223.03
2018-02-06T17:50:38.723Z,187.63
2018-02-06T17:53:07.433Z,196.53
2018-02-06T17:55:36.441Z,267.60
2018-02-06T17:58:05.726Z,239.50
2018-02-06T18:00:35.152Z,204.70
2018-02-06T18:03:04.150Z,250.57
2018-02-06T18:05:33.326Z,238.90
2018-02-06T18:08:02.314Z,256.43
2018-02-06T18:10:30.698Z,241.67
2018-02-06T18:13:01.505Z,240.90
2018-02-06T18:15:30.211Z,214.07
2018-02-06T18:17:59.576Z,181.40
2018-02-06T18:20:28.168Z,172.97
2018-02-06T18:22:56.582Z,203.60
2018-02-06T18:25:25.268Z,265.40
2018-02-06T18:27:55.417Z,253.33
2018-02-06T18:30:25.235Z,223.73
2018-02-06T18:32:53.783Z,209.07
2018-02-06T18:35:22.488Z,253.70
2018-02-06T18:37:51.094Z,278.47
2018-02-06T18:40:19.842Z,238.43
2018-02-06T18:42:49.177Z,236.43
2018-02-06T18:45:18.889Z,230.97
2018-02-06T18:47:47.020Z,258.57
2018-02-06T18:50:16.131Z,207.03
2018-02-06T18:52:44.807Z,212.63
2018-02-06T18:55:13.122Z,201.77
2018-02-06T18:57:42.176Z,193.90
2018-02-06T19:00:10.857Z,207.63
2018-02-06T19:02:40.799Z,199.20
2018-02-06T19:05:10.020Z,231.50
2018-02-06T19:07:39.384Z,229.67
2018-02-06T19:10:08.332Z,221.23
2018-02-06T19:12:36.375Z,216.93
2018-02-06T19:15:05.228Z,220.60
2018-02-06T19:17:34.877Z,234.53
2018-02-06T19:20:03.436Z,230.10
2018-02-06T19:22:31.675Z,234.17
2018-02-06T19:25:01.099Z,242.77
2018-02-06T19:27:29.479Z,238.77
2018-02-06T19:29:58.270Z,235.70
2018-02-06T19:32:27.576Z,230.97
2018-02-06T19:34:55.845Z,248.37
2018-02-06T19:37:24.644Z,235.43
2018-02-06T19:39:53.546Z,243.00
2018-02-06T19:42:23.119Z,235.57
2018-02-06T19:44:51.960Z,240.17
2018-02-06T19:47:21.660Z,228.10
2018-02-06T19:49:50.517Z,237.33
2018-02-06T19:52:19.855Z,250.43
2018-02-06T19:54:49.935Z,232.23
2018-02-06T19:57:19.487Z,228.43
2018-02-06T19:59:48.333Z,231.40
2018-02-06T20:02:17.363Z,236.10
2018-02-06T20:04:46.219Z,235.07
2018-02-06T20:07:15.235Z,239.97
2018-02-06T20:09:44.852Z,233.83
2018-02-06T20:12:14.733Z,237.03
2018-02-06T20:14:43.076Z,257.30
2018-02-06T20:17:12.213Z,251.13
2018-02-06T20:19:40.279Z,240.60
2018-02-06T20:22:08.383Z,251.53
2018-02-06T20:24:37.560Z,235.83
2018-02-06T20:27:06.070Z,232.40
2018-02-06T20:29:34.633Z,255.47
2018-02-06T20:32:02.684Z,259.07
2018-02-06T20:34:30.943Z,266.90
2018-02-06T20:36:58.961Z,253.97
2018-02-06T20:39:26.989Z,245.27
2018-02-06T20:41:56.153Z,258.87
2018-02-06T20:44:24.509Z,247.27
2018-02-06T20:46:52.741Z,255.80
2018-02-06T20:49:21.031Z,251.13
2018-02-06T20:51:49.404Z,240.57
2018-02-06T20:54:17.362Z,237.03
2018-02-06T20:56:45.438Z,244.13
2018-02-06T20:59:13.599Z,218.50
2018-02-06T21:01:41.680Z,236.70
2018-02-06T21:04:10.984Z,209.27
2018-02-06T21:06:39.056Z,208.90
2018-02-06T21:09:07.116Z,232.20
2018-02-06T21:11:34.951Z,219.20
2018-02-06T21:14:02.905Z,205.43
2018-02-06T21:16:30.990Z,202.47
2018-02-06T21:18:58.947Z,228.07
2018-02-06T21:21:26.534Z,208.33
2018-02-06T21:23:55.211Z,199.70
2018-02-06T21:26:22.783Z,191.37
2018-02-06T21:28:50.445Z,192.80
2018-02-06T21:31:18.030Z,189.80
2018-02-06T21:33:45.575Z,199.23
2018-02-06T21:36:13.215Z,189.53
2018-02-06T21:38:40.745Z,182.83
2018-02-06T21:41:08.339Z,186.30
2018-02-06T21:43:35.893Z,183.43
2018-02-06T21:46:03.876Z,175.60
2018-02-06T21:48:31.461Z,180.03
2018-02-06T21:50:59.866Z,172.73
2018-02-06T21:53:27.406Z,175.83
2018-02-06T21:55:54.960Z,185.50
2018-02-06T21:58:22.552Z,193.40
2018-02-06T22:00:50.157Z,187.87
2018-02-06T22:03:17.737Z,189.00
2018-02-06T22:05:45.284Z,180.37
2018-02-06T22:08:13.684Z,183.70
2018-02-06T22:10:41.224Z,184.43
2018-02-06T22:13:08.968Z,182.67
2018-02-06T22:15:36.510Z,169.67
2018-02-06T22:18:04.510Z,166.43
2018-02-06T22:20:32.063Z,168.33
2018-02-06T22:22:59.790Z,180.67
2018-02-06T22:25:27.349Z,171.43
2018-02-06T22:27:54.943Z,170.43
2018-02-06T22:30:22.543Z,173.83
2018-02-06T22:32:50.086Z,166.37
2018-02-06T22:35:17.675Z,174.47
2018-02-06T22:37:45.591Z,204.10
2018-02-06T22:40:13.199Z,185.67
2018-02-06T22:42:40.778Z,168.07
2018-02-06T22:45:08.753Z,174.33
2018-02-06T22:47:36.335Z,179.10
2018-02-06T22:50:04.385Z,209.80
2018-02-06T22:52:32.591Z,193.57
2018-02-06T22:55:00.130Z,178.50
2018-02-06T22:57:27.726Z,187.83
2018-02-06T22:59:55.305Z,184.90
2018-02-06T23:02:22.894Z,218.07
2018-02-06T23:04:50.435Z,227.53
2018-02-06T23:07:18.022Z,244.70
2018-02-06T23:09:45.608Z,233.80
2018-02-06T23:12:13.200Z,221.67
2018-02-06T23:14:41.164Z,255.33
2018-02-06T23:17:08.753Z,224.83
2018-02-06T23:19:36.307Z,212.63
2018-02-06T23:22:03.870Z,218.40
2018-02-06T23:24:31.686Z,238.27
2018-02-06T23:26:59.516Z,225.63
2018-02-06T23:29:27.101Z,236.23
2018-02-06T23:31:55.022Z,227.13
2018-02-06T23:34:22.621Z,216.00
2018-02-06T23:36:50.224Z,226.50
2018-02-06T23:39:17.813Z,207.77
2018-02-06T23:41:46.299Z,212.57
2018-02-06T23:44:13.842Z,199.20
2018-02-06T23:46:41.434Z,203.47
2018-02-06T23:49:09.479Z,194.97
2018-02-06T23:51:37.057Z,196.87
2018-02-06T23:54:04.599Z,191.77
2018-02-06T23:56:32.187Z,187.83
2018-02-06T23:58:59.770Z,185.30
